sensor_id;sensor_type;location;lat;lon;timestamp;P1;durP1;ratioP1;P2;durP2;ratioP2
11211;SDS011;5663;50.864;12.096;2023-04-01T00:00:33;2.97;;;1.10;;
11211;SDS011;5663;50.864;12.096;2023-04-01T00:06:09;3.97;;;1.03;;
11211;SDS011;5663;50.864;12.096;2023-04-01T00:08:40;1.63;;;0.90;;
11211;SDS011;5663;50.864;12.096;2023-04-01T00:11:08;2.40;;;1.10;;
11211;SDS011;5663;50.864;12.096;2023-04-01T00:13:37;1.93;;;1.10;;
11211;SDS011;5663;50.864;12.096;2023-04-01T00:16:05;3.83;;;1.37;;
11211;SDS011;5663;50.864;12.096;2023-04-01T00:18:34;1.97;;;1.00;;
11211;SDS011;5663;50.864;12.096;2023-04-01T00:21:01;4.80;;;1.33;;
11211;SDS011;5663;50.864;12.096;2023-04-01T00:23:29;2.13;;;1.10;;
11211;SDS011;5663;50.864;12.096;2023-04-01T00:25:58;3.03;;;1.20;;
11211;SDS011;5663;50.864;12.096;2023-04-01T00:28:27;2.93;;;1.10;;
11211;SDS011;5663;50.864;12.096;2023-04-01T00:30:58;3.73;;;1.37;;
11211;SDS011;5663;50.864;12.096;2023-04-01T00:33:25;3.83;;;1.10;;
11211;SDS011;5663;50.864;12.096;2023-04-01T00:35:53;3.70;;;1.30;;
11211;SDS011;5663;50.864;12.096;2023-04-01T00:38:21;1.97;;;1.17;;
11211;SDS011;5663;50.864;12.096;2023-04-01T00:40:49;3.63;;;1.53;;
11211;SDS011;5663;50.864;12.096;2023-04-01T00:43:17;2.83;;;1.13;;
11211;SDS011;5663;50.864;12.096;2023-04-01T00:45:48;6.87;;;1.50;;
11211;SDS011;5663;50.864;12.096;2023-04-01T00:48:20;3.13;;;1.33;;
11211;SDS011;5663;50.864;12.096;2023-04-01T00:50:53;3.43;;;0.97;;
11211;SDS011;5663;50.864;12.096;2023-04-01T00:53:24;6.47;;;1.30;;
11211;SDS011;5663;50.864;12.096;2023-04-01T00:55:54;2.60;;;1.20;;
11211;SDS011;5663;50.864;12.096;2023-04-01T00:58:25;4.83;;;1.10;;
11211;SDS011;5663;50.864;12.096;2023-04-01T01:00:57;2.50;;;1.20;;
11211;SDS011;5663;50.864;12.096;2023-04-01T01:03:28;2.63;;;1.20;;
11211;SDS011;5663;50.864;12.096;2023-04-01T01:06:03;3.53;;;1.20;;
11211;SDS011;5663;50.864;12.096;2023-04-01T01:11:39;2.20;;;1.10;;
11211;SDS011;5663;50.864;12.096;2023-04-01T01:14:17;3.27;;;1.23;;
11211;SDS011;5663;50.864;12.096;2023-04-01T01:16:53;3.10;;;1.20;;
11211;SDS011;5663;50.864;12.096;2023-04-01T01:19:36;3.83;;;1.30;;
11211;SDS011;5663;50.864;12.096;2023-04-01T01:22:25;2.30;;;1.13;;
11211;SDS011;5663;50.864;12.096;2023-04-01T01:27:54;3.20;;;1.40;;
11211;SDS011;5663;50.864;12.096;2023-04-01T01:30:36;5.40;;;1.30;;
11211;SDS011;5663;50.864;12.096;2023-04-01T01:33:21;2.80;;;1.13;;
11211;SDS011;5663;50.864;12.096;2023-04-01T01:36:01;1.47;;;0.87;;
11211;SDS011;5663;50.864;12.096;2023-04-01T01:38:33;2.70;;;1.23;;
11211;SDS011;5663;50.864;12.096;2023-04-01T01:41:02;5.53;;;1.63;;
11211;SDS011;5663;50.864;12.096;2023-04-01T01:43:33;3.37;;;1.30;;
11211;SDS011;5663;50.864;12.096;2023-04-01T01:46:05;2.83;;;1.10;;
11211;SDS011;5663;50.864;12.096;2023-04-01T01:48:37;4.67;;;1.50;;
11211;SDS011;5663;50.864;12.096;2023-04-01T01:51:08;3.37;;;1.20;;
11211;SDS011;5663;50.864;12.096;2023-04-01T01:53:37;5.40;;;1.30;;
11211;SDS011;5663;50.864;12.096;2023-04-01T01:56:04;2.80;;;1.40;;
11211;SDS011;5663;50.864;12.096;2023-04-01T01:58:33;7.60;;;1.50;;
11211;SDS011;5663;50.864;12.096;2023-04-01T02:01:07;4.97;;;1.40;;
11211;SDS011;5663;50.864;12.096;2023-04-01T02:03:39;2.57;;;1.53;;
11211;SDS011;5663;50.864;12.096;2023-04-01T02:06:11;4.33;;;1.40;;
11211;SDS011;5663;50.864;12.096;2023-04-01T02:08:42;3.00;;;1.40;;
11211;SDS011;5663;50.864;12.096;2023-04-01T02:11:13;2.80;;;1.33;;
11211;SDS011;5663;50.864;12.096;2023-04-01T02:13:51;4.47;;;1.30;;
11211;SDS011;5663;50.864;12.096;2023-04-01T02:16:22;4.03;;;1.60;;
11211;SDS011;5663;50.864;12.096;2023-04-01T02:18:55;3.50;;;1.63;;
11211;SDS011;5663;50.864;12.096;2023-04-01T02:21:27;4.80;;;1.40;;
11211;SDS011;5663;50.864;12.096;2023-04-01T02:24:00;3.93;;;1.63;;
11211;SDS011;5663;50.864;12.096;2023-04-01T02:26:31;5.67;;;1.60;;
11211;SDS011;5663;50.864;12.096;2023-04-01T02:28:59;5.07;;;1.73;;
11211;SDS011;5663;50.864;12.096;2023-04-01T02:31:28;3.33;;;1.27;;
11211;SDS011;5663;50.864;12.096;2023-04-01T02:33:56;3.27;;;1.43;;
11211;SDS011;5663;50.864;12.096;2023-04-01T02:36:25;3.10;;;1.50;;
11211;SDS011;5663;50.864;12.096;2023-04-01T02:38:54;4.60;;;1.23;;
11211;SDS011;5663;50.864;12.096;2023-04-01T02:41:28;5.70;;;1.50;;
11211;SDS011;5663;50.864;12.096;2023-04-01T02:43:56;5.30;;;1.50;;
11211;SDS011;5663;50.864;12.096;2023-04-01T02:46:25;3.37;;;1.20;;
11211;SDS011;5663;50.864;12.096;2023-04-01T02:48:53;6.40;;;1.53;;
11211;SDS011;5663;50.864;12.096;2023-04-01T02:51:21;5.50;;;1.50;;
11211;SDS011;5663;50.864;12.096;2023-04-01T02:53:49;2.73;;;1.20;;
11211;SDS011;5663;50.864;12.096;2023-04-01T02:56:18;4.13;;;1.30;;
11211;SDS011;5663;50.864;12.096;2023-04-01T02:58:47;3.70;;;1.23;;
11211;SDS011;5663;50.864;12.096;2023-04-01T03:01:14;3.17;;;1.23;;
11211;SDS011;5663;50.864;12.096;2023-04-01T03:03:43;2.77;;;1.10;;
11211;SDS011;5663;50.864;12.096;2023-04-01T03:06:12;2.60;;;1.43;;
11211;SDS011;5663;50.864;12.096;2023-04-01T03:08:41;2.50;;;1.33;;
11211;SDS011;5663;50.864;12.096;2023-04-01T03:11:10;4.43;;;1.37;;
11211;SDS011;5663;50.864;12.096;2023-04-01T03:13:39;1.70;;;0.97;;
11211;SDS011;5663;50.864;12.096;2023-04-01T03:16:07;2.83;;;0.90;;
11211;SDS011;5663;50.864;12.096;2023-04-01T03:18:35;3.37;;;0.90;;
11211;SDS011;5663;50.864;12.096;2023-04-01T03:21:12;1.57;;;0.97;;
11211;SDS011;5663;50.864;12.096;2023-04-01T03:23:44;3.27;;;1.40;;
11211;SDS011;5663;50.864;12.096;2023-04-01T03:26:12;3.30;;;1.20;;
11211;SDS011;5663;50.864;12.096;2023-04-01T03:28:41;6.03;;;1.33;;
11211;SDS011;5663;50.864;12.096;2023-04-01T03:31:09;3.60;;;1.10;;
11211;SDS011;5663;50.864;12.096;2023-04-01T03:33:37;2.13;;;0.80;;
11211;SDS011;5663;50.864;12.096;2023-04-01T03:36:05;3.67;;;1.07;;
11211;SDS011;5663;50.864;12.096;2023-04-01T03:38:33;3.00;;;1.10;;
11211;SDS011;5663;50.864;12.096;2023-04-01T03:41:01;3.67;;;1.00;;
11211;SDS011;5663;50.864;12.096;2023-04-01T03:43:29;1.47;;;0.93;;
11211;SDS011;5663;50.864;12.096;2023-04-01T03:45:58;3.37;;;1.17;;
11211;SDS011;5663;50.864;12.096;2023-04-01T03:48:25;3.37;;;1.20;;
11211;SDS011;5663;50.864;12.096;2023-04-01T03:50:53;2.77;;;1.20;;
11211;SDS011;5663;50.864;12.096;2023-04-01T03:53:21;1.50;;;1.17;;
11211;SDS011;5663;50.864;12.096;2023-04-01T03:55:49;1.80;;;1.20;;
11211;SDS011;5663;50.864;12.096;2023-04-01T03:58:17;1.80;;;1.00;;
11211;SDS011;5663;50.864;12.096;2023-04-01T04:00:46;2.43;;;1.13;;
11211;SDS011;5663;50.864;12.096;2023-04-01T04:03:15;3.70;;;1.37;;
11211;SDS011;5663;50.864;12.096;2023-04-01T04:05:46;2.77;;;1.13;;
11211;SDS011;5663;50.864;12.096;2023-04-01T04:08:14;2.77;;;1.13;;
11211;SDS011;5663;50.864;12.096;2023-04-01T04:10:43;2.63;;;1.10;;
11211;SDS011;5663;50.864;12.096;2023-04-01T04:13:11;2.03;;;0.93;;
11211;SDS011;5663;50.864;12.096;2023-04-01T04:15:39;2.00;;;0.90;;
11211;SDS011;5663;50.864;12.096;2023-04-01T04:18:07;2.83;;;1.03;;
11211;SDS011;5663;50.864;12.096;2023-04-01T04:20:36;1.73;;;0.97;;
11211;SDS011;5663;50.864;12.096;2023-04-01T04:23:11;2.40;;;1.10;;
11211;SDS011;5663;50.864;12.096;2023-04-01T04:25:38;1.93;;;1.00;;
11211;SDS011;5663;50.864;12.096;2023-04-01T04:28:06;3.90;;;1.10;;
11211;SDS011;5663;50.864;12.096;2023-04-01T04:30:34;2.17;;;1.00;;
11211;SDS011;5663;50.864;12.096;2023-04-01T04:33:02;4.67;;;1.43;;
11211;SDS011;5663;50.864;12.096;2023-04-01T04:35:29;3.90;;;1.30;;
11211;SDS011;5663;50.864;12.096;2023-04-01T04:37:59;3.60;;;1.20;;
11211;SDS011;5663;50.864;12.096;2023-04-01T04:40:27;3.30;;;1.07;;
11211;SDS011;5663;50.864;12.096;2023-04-01T04:42:54;3.50;;;1.20;;
11211;SDS011;5663;50.864;12.096;2023-04-01T04:45:22;1.50;;;1.10;;
11211;SDS011;5663;50.864;12.096;2023-04-01T04:47:50;3.83;;;1.20;;
11211;SDS011;5663;50.864;12.096;2023-04-01T04:50:18;2.93;;;1.10;;
11211;SDS011;5663;50.864;12.096;2023-04-01T04:52:46;1.07;;;0.97;;
11211;SDS011;5663;50.864;12.096;2023-04-01T04:55:15;5.10;;;1.20;;
11211;SDS011;5663;50.864;12.096;2023-04-01T04:57:43;2.73;;;1.17;;
11211;SDS011;5663;50.864;12.096;2023-04-01T05:00:11;3.80;;;1.43;;
11211;SDS011;5663;50.864;12.096;2023-04-01T05:02:39;4.73;;;1.10;;
11211;SDS011;5663;50.864;12.096;2023-04-01T05:05:07;9.20;;;1.50;;
11211;SDS011;5663;50.864;12.096;2023-04-01T05:07:36;2.70;;;1.60;;
11211;SDS011;5663;50.864;12.096;2023-04-01T05:10:04;3.20;;;1.40;;
11211;SDS011;5663;50.864;12.096;2023-04-01T05:12:34;3.73;;;1.20;;
11211;SDS011;5663;50.864;12.096;2023-04-01T05:15:04;4.03;;;1.30;;
11211;SDS011;5663;50.864;12.096;2023-04-01T05:17:33;2.30;;;1.40;;
11211;SDS011;5663;50.864;12.096;2023-04-01T05:20:01;3.03;;;1.30;;
11211;SDS011;5663;50.864;12.096;2023-04-01T05:22:29;2.63;;;1.17;;
11211;SDS011;5663;50.864;12.096;2023-04-01T05:24:56;2.10;;;1.27;;
11211;SDS011;5663;50.864;12.096;2023-04-01T05:27:24;2.33;;;1.13;;
11211;SDS011;5663;50.864;12.096;2023-04-01T05:29:54;2.60;;;1.13;;
11211;SDS011;5663;50.864;12.096;2023-04-01T05:32:22;2.80;;;1.40;;
11211;SDS011;5663;50.864;12.096;2023-04-01T05:34:51;3.03;;;1.40;;
11211;SDS011;5663;50.864;12.096;2023-04-01T05:37:18;3.93;;;1.30;;
11211;SDS011;5663;50.864;12.096;2023-04-01T05:39:47;2.97;;;1.40;;
11211;SDS011;5663;50.864;12.096;2023-04-01T05:42:15;3.93;;;1.40;;
11211;SDS011;5663;50.864;12.096;2023-04-01T05:44:42;3.83;;;1.30;;
11211;SDS011;5663;50.864;12.096;2023-04-01T05:47:12;1.47;;;1.20;;
11211;SDS011;5663;50.864;12.096;2023-04-01T05:49:39;4.63;;;1.40;;
11211;SDS011;5663;50.864;12.096;2023-04-01T05:52:07;2.93;;;1.30;;
11211;SDS011;5663;50.864;12.096;2023-04-01T05:54:35;2.10;;;1.20;;
11211;SDS011;5663;50.864;12.096;2023-04-01T05:57:03;3.17;;;1.20;;
11211;SDS011;5663;50.864;12.096;2023-04-01T05:59:31;1.50;;;0.90;;
11211;SDS011;5663;50.864;12.096;2023-04-01T06:02:00;2.77;;;1.10;;
11211;SDS011;5663;50.864;12.096;2023-04-01T06:04:31;3.13;;;1.10;;
11211;SDS011;5663;50.864;12.096;2023-04-01T06:07:05;2.40;;;1.10;;
11211;SDS011;5663;50.864;12.096;2023-04-01T06:09:40;2.60;;;1.30;;
11211;SDS011;5663;50.864;12.096;2023-04-01T06:12:21;3.73;;;1.30;;
11211;SDS011;5663;50.864;12.096;2023-04-01T06:14:59;4.13;;;1.40;;
11211;SDS011;5663;50.864;12.096;2023-04-01T06:17:41;3.77;;;1.07;;
11211;SDS011;5663;50.864;12.096;2023-04-01T06:20:22;4.43;;;1.30;;
11211;SDS011;5663;50.864;12.096;2023-04-01T06:23:01;1.87;;;1.23;;
11211;SDS011;5663;50.864;12.096;2023-04-01T06:25:43;2.67;;;1.30;;
11211;SDS011;5663;50.864;12.096;2023-04-01T06:28:46;3.93;;;1.40;;
11211;SDS011;5663;50.864;12.096;2023-04-01T06:31:33;2.93;;;1.60;;
11211;SDS011;5663;50.864;12.096;2023-04-01T06:34:27;3.90;;;1.60;;
11211;SDS011;5663;50.864;12.096;2023-04-01T06:37:16;3.97;;;1.20;;
11211;SDS011;5663;50.864;12.096;2023-04-01T06:40:08;3.50;;;1.10;;
11211;SDS011;5663;50.864;12.096;2023-04-01T06:42:53;3.00;;;1.10;;
11211;SDS011;5663;50.864;12.096;2023-04-01T06:45:32;3.50;;;1.20;;
11211;SDS011;5663;50.864;12.096;2023-04-01T06:48:18;3.90;;;1.27;;
11211;SDS011;5663;50.864;12.096;2023-04-01T06:51:07;3.60;;;1.40;;
11211;SDS011;5663;50.864;12.096;2023-04-01T06:53:46;3.03;;;1.23;;
11211;SDS011;5663;50.864;12.096;2023-04-01T06:56:21;5.93;;;2.20;;
11211;SDS011;5663;50.864;12.096;2023-04-01T06:58:54;5.10;;;1.83;;
11211;SDS011;5663;50.864;12.096;2023-04-01T07:01:27;4.47;;;1.57;;
11211;SDS011;5663;50.864;12.096;2023-04-01T07:04:00;4.13;;;2.10;;
11211;SDS011;5663;50.864;12.096;2023-04-01T07:06:32;3.70;;;2.20;;
11211;SDS011;5663;50.864;12.096;2023-04-01T07:09:06;6.23;;;2.70;;
11211;SDS011;5663;50.864;12.096;2023-04-01T07:11:39;5.43;;;2.43;;
11211;SDS011;5663;50.864;12.096;2023-04-01T07:14:10;6.83;;;1.87;;
11211;SDS011;5663;50.864;12.096;2023-04-01T07:16:45;3.20;;;1.60;;
11211;SDS011;5663;50.864;12.096;2023-04-01T07:19:20;3.03;;;1.37;;
11211;SDS011;5663;50.864;12.096;2023-04-01T07:21:55;2.70;;;1.07;;
11211;SDS011;5663;50.864;12.096;2023-04-01T07:24:27;2.63;;;1.23;;
11211;SDS011;5663;50.864;12.096;2023-04-01T07:26:59;1.97;;;0.90;;
11211;SDS011;5663;50.864;12.096;2023-04-01T07:29:27;2.90;;;1.27;;
11211;SDS011;5663;50.864;12.096;2023-04-01T07:32:07;4.90;;;1.40;;
11211;SDS011;5663;50.864;12.096;2023-04-01T07:34:44;3.33;;;0.90;;
11211;SDS011;5663;50.864;12.096;2023-04-01T07:37:21;2.67;;;1.00;;
11211;SDS011;5663;50.864;12.096;2023-04-01T07:39:59;5.60;;;1.40;;
11211;SDS011;5663;50.864;12.096;2023-04-01T07:42:44;2.30;;;1.03;;
11211;SDS011;5663;50.864;12.096;2023-04-01T07:45:23;3.07;;;1.40;;
11211;SDS011;5663;50.864;12.096;2023-04-01T07:48:00;1.93;;;1.33;;
11211;SDS011;5663;50.864;12.096;2023-04-01T07:50:41;4.23;;;1.50;;
11211;SDS011;5663;50.864;12.096;2023-04-01T07:53:19;4.47;;;1.47;;
11211;SDS011;5663;50.864;12.096;2023-04-01T07:55:57;3.17;;;1.30;;
11211;SDS011;5663;50.864;12.096;2023-04-01T07:58:32;2.53;;;1.13;;
11211;SDS011;5663;50.864;12.096;2023-04-01T08:01:09;3.47;;;1.20;;
11211;SDS011;5663;50.864;12.096;2023-04-01T08:03:45;3.50;;;1.40;;
11211;SDS011;5663;50.864;12.096;2023-04-01T08:06:24;3.83;;;1.20;;
11211;SDS011;5663;50.864;12.096;2023-04-01T08:08:59;2.97;;;0.93;;
11211;SDS011;5663;50.864;12.096;2023-04-01T08:11:39;1.90;;;1.03;;
11211;SDS011;5663;50.864;12.096;2023-04-01T08:14:17;2.80;;;1.17;;
11211;SDS011;5663;50.864;12.096;2023-04-01T08:16:54;2.73;;;1.10;;
11211;SDS011;5663;50.864;12.096;2023-04-01T08:19:31;6.43;;;1.30;;
11211;SDS011;5663;50.864;12.096;2023-04-01T08:22:12;2.87;;;1.00;;
11211;SDS011;5663;50.864;12.096;2023-04-01T08:24:46;3.07;;;1.10;;
11211;SDS011;5663;50.864;12.096;2023-04-01T08:27:20;3.70;;;1.50;;
11211;SDS011;5663;50.864;12.096;2023-04-01T08:29:55;2.33;;;0.97;;
11211;SDS011;5663;50.864;12.096;2023-04-01T08:32:28;2.20;;;1.10;;
11211;SDS011;5663;50.864;12.096;2023-04-01T08:35:06;4.13;;;0.87;;
11211;SDS011;5663;50.864;12.096;2023-04-01T08:37:38;2.50;;;0.87;;
11211;SDS011;5663;50.864;12.096;2023-04-01T08:40:20;2.10;;;0.80;;
11211;SDS011;5663;50.864;12.096;2023-04-01T08:43:06;1.33;;;0.97;;
11211;SDS011;5663;50.864;12.096;2023-04-01T08:48:57;1.60;;;0.80;;
11211;SDS011;5663;50.864;12.096;2023-04-01T08:54:54;2.93;;;0.67;;
11211;SDS011;5663;50.864;12.096;2023-04-01T08:57:39;1.67;;;0.70;;
11211;SDS011;5663;50.864;12.096;2023-04-01T09:00:22;0.83;;;0.70;;
11211;SDS011;5663;50.864;12.096;2023-04-01T09:03:07;1.13;;;0.67;;
11211;SDS011;5663;50.864;12.096;2023-04-01T09:05:54;1.13;;;0.70;;
11211;SDS011;5663;50.864;12.096;2023-04-01T09:08:41;4.10;;;0.80;;
11211;SDS011;5663;50.864;12.096;2023-04-01T09:11:22;1.63;;;0.60;;
11211;SDS011;5663;50.864;12.096;2023-04-01T09:14:05;1.57;;;0.70;;
11211;SDS011;5663;50.864;12.096;2023-04-01T09:17:12;2.57;;;1.20;;
11211;SDS011;5663;50.864;12.096;2023-04-01T09:23:00;1.70;;;0.87;;
11211;SDS011;5663;50.864;12.096;2023-04-01T09:26:03;0.30;;;0.30;;
11211;SDS011;5663;50.864;12.096;2023-04-01T09:28:47;0.73;;;0.50;;
11211;SDS011;5663;50.864;12.096;2023-04-01T09:31:34;2.03;;;0.60;;
11211;SDS011;5663;50.864;12.096;2023-04-01T09:34:27;3.83;;;0.70;;
11211;SDS011;5663;50.864;12.096;2023-04-01T09:37:15;2.40;;;0.90;;
11211;SDS011;5663;50.864;12.096;2023-04-01T09:39:51;0.80;;;0.60;;
11211;SDS011;5663;50.864;12.096;2023-04-01T09:42:44;0.90;;;0.63;;
11211;SDS011;5663;50.864;12.096;2023-04-01T09:45:22;0.73;;;0.70;;
11211;SDS011;5663;50.864;12.096;2023-04-01T09:48:02;0.73;;;0.73;;
11211;SDS011;5663;50.864;12.096;2023-04-01T09:50:44;1.60;;;0.70;;
11211;SDS011;5663;50.864;12.096;2023-04-01T09:53:27;2.07;;;0.73;;
11211;SDS011;5663;50.864;12.096;2023-04-01T10:02:23;2.03;;;0.50;;
11211;SDS011;5663;50.864;12.096;2023-04-01T10:08:43;0.67;;;0.40;;
11211;SDS011;5663;50.864;12.096;2023-04-01T10:11:49;1.87;;;0.70;;
11211;SDS011;5663;50.864;12.096;2023-04-01T10:14:54;0.97;;;0.57;;
11211;SDS011;5663;50.864;12.096;2023-04-01T10:17:51;0.60;;;0.43;;
11211;SDS011;5663;50.864;12.096;2023-04-01T10:20:55;0.70;;;0.57;;
11211;SDS011;5663;50.864;12.096;2023-04-01T10:27:15;1.67;;;0.80;;
11211;SDS011;5663;50.864;12.096;2023-04-01T10:33:11;1.13;;;0.90;;
11211;SDS011;5663;50.864;12.096;2023-04-01T10:39:11;0.90;;;0.83;;
11211;SDS011;5663;50.864;12.096;2023-04-01T10:48:20;1.10;;;0.53;;
11211;SDS011;5663;50.864;12.096;2023-04-01T10:51:04;1.10;;;0.70;;
11211;SDS011;5663;50.864;12.096;2023-04-01T10:54:00;1.70;;;0.60;;
11211;SDS011;5663;50.864;12.096;2023-04-01T10:56:48;2.40;;;0.80;;
11211;SDS011;5663;50.864;12.096;2023-04-01T10:59:33;1.43;;;0.80;;
11211;SDS011;5663;50.864;12.096;2023-04-01T11:14:41;1.60;;;0.50;;
11211;SDS011;5663;50.864;12.096;2023-04-01T11:23:58;1.30;;;0.53;;
11211;SDS011;5663;50.864;12.096;2023-04-01T11:26:41;0.80;;;0.67;;
11211;SDS011;5663;50.864;12.096;2023-04-01T11:32:18;1.30;;;0.50;;
11211;SDS011;5663;50.864;12.096;2023-04-01T11:35:04;0.53;;;0.53;;
11211;SDS011;5663;50.864;12.096;2023-04-01T11:38:07;0.93;;;0.70;;
11211;SDS011;5663;50.864;12.096;2023-04-01T11:40:47;1.53;;;0.80;;
11211;SDS011;5663;50.864;12.096;2023-04-01T11:43:24;1.53;;;0.60;;
11211;SDS011;5663;50.864;12.096;2023-04-01T11:46:02;0.93;;;0.60;;
11211;SDS011;5663;50.864;12.096;2023-04-01T11:48:55;1.33;;;0.60;;
11211;SDS011;5663;50.864;12.096;2023-04-01T11:51:40;1.30;;;0.70;;
11211;SDS011;5663;50.864;12.096;2023-04-01T11:57:16;1.23;;;0.70;;
11211;SDS011;5663;50.864;12.096;2023-04-01T12:00:16;1.10;;;0.80;;
11211;SDS011;5663;50.864;12.096;2023-04-01T12:03:00;1.53;;;0.67;;
11211;SDS011;5663;50.864;12.096;2023-04-01T12:05:42;1.00;;;0.80;;
11211;SDS011;5663;50.864;12.096;2023-04-01T12:08:18;1.10;;;0.80;;
11211;SDS011;5663;50.864;12.096;2023-04-01T12:10:59;0.60;;;0.60;;
11211;SDS011;5663;50.864;12.096;2023-04-01T12:13:34;1.20;;;0.70;;
11211;SDS011;5663;50.864;12.096;2023-04-01T12:19:11;1.23;;;0.90;;
11211;SDS011;5663;50.864;12.096;2023-04-01T12:21:51;0.63;;;0.63;;
11211;SDS011;5663;50.864;12.096;2023-04-01T12:24:40;3.30;;;0.83;;
11211;SDS011;5663;50.864;12.096;2023-04-01T12:27:19;2.03;;;0.80;;
11211;SDS011;5663;50.864;12.096;2023-04-01T12:30:17;2.77;;;0.80;;
11211;SDS011;5663;50.864;12.096;2023-04-01T12:36:23;1.23;;;0.60;;
11211;SDS011;5663;50.864;12.096;2023-04-01T12:39:11;2.73;;;1.30;;
11211;SDS011;5663;50.864;12.096;2023-04-01T12:41:51;2.30;;;0.77;;
11211;SDS011;5663;50.864;12.096;2023-04-01T12:44:33;0.63;;;0.60;;
11211;SDS011;5663;50.864;12.096;2023-04-01T12:47:25;0.80;;;0.80;;
11211;SDS011;5663;50.864;12.096;2023-04-01T12:50:33;1.53;;;0.80;;
11211;SDS011;5663;50.864;12.096;2023-04-01T12:53:15;0.93;;;0.50;;
11211;SDS011;5663;50.864;12.096;2023-04-01T12:55:59;0.50;;;0.50;;
11211;SDS011;5663;50.864;12.096;2023-04-01T12:58:49;0.50;;;0.50;;
11211;SDS011;5663;50.864;12.096;2023-04-01T13:01:46;0.73;;;0.73;;
11211;SDS011;5663;50.864;12.096;2023-04-01T13:04:37;1.70;;;0.70;;
11211;SDS011;5663;50.864;12.096;2023-04-01T13:07:34;0.70;;;0.70;;
11211;SDS011;5663;50.864;12.096;2023-04-01T13:10:15;0.73;;;0.73;;
11211;SDS011;5663;50.864;12.096;2023-04-01T13:13:00;2.13;;;0.70;;
11211;SDS011;5663;50.864;12.096;2023-04-01T13:15:58;2.00;;;0.80;;
11211;SDS011;5663;50.864;12.096;2023-04-01T13:18:37;1.13;;;0.60;;
11211;SDS011;5663;50.864;12.096;2023-04-01T13:21:15;1.77;;;0.60;;
11211;SDS011;5663;50.864;12.096;2023-04-01T13:23:54;0.93;;;0.77;;
11211;SDS011;5663;50.864;12.096;2023-04-01T13:26:33;0.63;;;0.50;;
11211;SDS011;5663;50.864;12.096;2023-04-01T13:29:10;0.63;;;0.60;;
11211;SDS011;5663;50.864;12.096;2023-04-01T13:31:48;1.33;;;0.90;;
11211;SDS011;5663;50.864;12.096;2023-04-01T13:34:31;1.80;;;0.50;;
11211;SDS011;5663;50.864;12.096;2023-04-01T13:37:12;1.63;;;0.90;;
11211;SDS011;5663;50.864;12.096;2023-04-01T13:39:55;1.37;;;0.70;;
11211;SDS011;5663;50.864;12.096;2023-04-01T13:42:33;0.93;;;0.87;;
11211;SDS011;5663;50.864;12.096;2023-04-01T13:45:09;2.27;;;0.77;;
11211;SDS011;5663;50.864;12.096;2023-04-01T13:47:52;1.70;;;0.90;;
11211;SDS011;5663;50.864;12.096;2023-04-01T13:54:15;1.50;;;1.10;;
11211;SDS011;5663;50.864;12.096;2023-04-01T13:56:57;1.83;;;1.10;;
11211;SDS011;5663;50.864;12.096;2023-04-01T14:05:39;1.33;;;1.10;;
11211;SDS011;5663;50.864;12.096;2023-04-01T14:08:20;1.77;;;0.90;;
11211;SDS011;5663;50.864;12.096;2023-04-01T14:11:10;0.70;;;0.63;;
11211;SDS011;5663;50.864;12.096;2023-04-01T14:13:47;1.77;;;0.63;;
11211;SDS011;5663;50.864;12.096;2023-04-01T14:16:47;0.60;;;0.60;;
11211;SDS011;5663;50.864;12.096;2023-04-01T14:19:34;1.57;;;0.70;;
11211;SDS011;5663;50.864;12.096;2023-04-01T14:22:23;0.80;;;0.73;;
11211;SDS011;5663;50.864;12.096;2023-04-01T14:27:55;2.03;;;0.70;;
11211;SDS011;5663;50.864;12.096;2023-04-01T14:30:47;1.47;;;0.60;;
11211;SDS011;5663;50.864;12.096;2023-04-01T14:33:33;4.33;;;0.70;;
11211;SDS011;5663;50.864;12.096;2023-04-01T14:36:21;0.70;;;0.67;;
11211;SDS011;5663;50.864;12.096;2023-04-01T14:39:08;0.87;;;0.67;;
11211;SDS011;5663;50.864;12.096;2023-04-01T14:41:51;1.23;;;0.40;;
11211;SDS011;5663;50.864;12.096;2023-04-01T14:44:37;1.47;;;0.70;;
11211;SDS011;5663;50.864;12.096;2023-04-01T14:50:16;2.00;;;0.60;;
11211;SDS011;5663;50.864;12.096;2023-04-01T14:52:50;0.83;;;0.83;;
11211;SDS011;5663;50.864;12.096;2023-04-01T14:55:29;2.13;;;0.60;;
11211;SDS011;5663;50.864;12.096;2023-04-01T14:58:07;2.47;;;0.87;;
11211;SDS011;5663;50.864;12.096;2023-04-01T15:03:38;0.53;;;0.50;;
11211;SDS011;5663;50.864;12.096;2023-04-01T15:06:38;1.60;;;0.60;;
11211;SDS011;5663;50.864;12.096;2023-04-01T15:09:27;7.40;;;1.10;;
11211;SDS011;5663;50.864;12.096;2023-04-01T15:12:11;0.60;;;0.60;;
11211;SDS011;5663;50.864;12.096;2023-04-01T15:17:55;0.77;;;0.77;;
11211;SDS011;5663;50.864;12.096;2023-04-01T15:20:40;2.90;;;0.93;;
11211;SDS011;5663;50.864;12.096;2023-04-01T15:23:34;0.90;;;0.80;;
11211;SDS011;5663;50.864;12.096;2023-04-01T15:26:22;0.80;;;0.80;;
11211;SDS011;5663;50.864;12.096;2023-04-01T15:31:58;1.43;;;0.80;;
11211;SDS011;5663;50.864;12.096;2023-04-01T15:34:32;2.43;;;1.20;;
11211;SDS011;5663;50.864;12.096;2023-04-01T15:37:10;1.10;;;1.00;;
11211;SDS011;5663;50.864;12.096;2023-04-01T15:39:54;2.07;;;1.37;;
11211;SDS011;5663;50.864;12.096;2023-04-01T15:42:29;1.70;;;1.60;;
11211;SDS011;5663;50.864;12.096;2023-04-01T15:45:12;4.13;;;2.40;;
11211;SDS011;5663;50.864;12.096;2023-04-01T15:47:45;2.33;;;1.70;;
11211;SDS011;5663;50.864;12.096;2023-04-01T15:56:30;2.10;;;1.03;;
11211;SDS011;5663;50.864;12.096;2023-04-01T15:59:13;1.10;;;1.00;;
11211;SDS011;5663;50.864;12.096;2023-04-01T16:01:51;1.23;;;1.13;;
11211;SDS011;5663;50.864;12.096;2023-04-01T16:07:22;2.10;;;1.30;;
11211;SDS011;5663;50.864;12.096;2023-04-01T16:10:21;2.60;;;1.20;;
11211;SDS011;5663;50.864;12.096;2023-04-01T16:13:17;1.70;;;1.10;;
11211;SDS011;5663;50.864;12.096;2023-04-01T16:16:06;1.20;;;1.10;;
11211;SDS011;5663;50.864;12.096;2023-04-01T16:21:43;2.80;;;1.00;;
11211;SDS011;5663;50.864;12.096;2023-04-01T16:24:17;0.93;;;0.93;;
11211;SDS011;5663;50.864;12.096;2023-04-01T16:26:53;0.83;;;0.80;;
11211;SDS011;5663;50.864;12.096;2023-04-01T16:29:28;2.23;;;1.13;;
11211;SDS011;5663;50.864;12.096;2023-04-01T16:32:09;1.17;;;1.00;;
11211;SDS011;5663;50.864;12.096;2023-04-01T16:34:46;1.10;;;1.00;;
11211;SDS011;5663;50.864;12.096;2023-04-01T16:37:28;1.43;;;1.10;;
11211;SDS011;5663;50.864;12.096;2023-04-01T16:40:10;1.70;;;1.30;;
11211;SDS011;5663;50.864;12.096;2023-04-01T16:42:47;1.60;;;1.50;;
11211;SDS011;5663;50.864;12.096;2023-04-01T16:45:29;2.13;;;1.50;;
11211;SDS011;5663;50.864;12.096;2023-04-01T16:48:06;3.20;;;1.40;;
11211;SDS011;5663;50.864;12.096;2023-04-01T16:50:50;5.40;;;1.80;;
11211;SDS011;5663;50.864;12.096;2023-04-01T16:53:25;2.27;;;1.77;;
11211;SDS011;5663;50.864;12.096;2023-04-01T16:56:06;2.30;;;1.97;;
11211;SDS011;5663;50.864;12.096;2023-04-01T16:58:39;4.23;;;1.63;;
11211;SDS011;5663;50.864;12.096;2023-04-01T17:01:13;3.13;;;1.60;;
11211;SDS011;5663;50.864;12.096;2023-04-01T17:03:49;3.27;;;1.50;;
11211;SDS011;5663;50.864;12.096;2023-04-01T17:06:23;2.57;;;1.90;;
11211;SDS011;5663;50.864;12.096;2023-04-01T17:11:59;2.20;;;1.80;;
11211;SDS011;5663;50.864;12.096;2023-04-01T17:14:39;4.43;;;1.70;;
11211;SDS011;5663;50.864;12.096;2023-04-01T17:17:26;1.53;;;1.40;;
11211;SDS011;5663;50.864;12.096;2023-04-01T17:20:05;1.87;;;1.53;;
11211;SDS011;5663;50.864;12.096;2023-04-01T17:22:44;1.73;;;1.37;;
11211;SDS011;5663;50.864;12.096;2023-04-01T17:25:27;2.13;;;1.60;;
11211;SDS011;5663;50.864;12.096;2023-04-01T17:28:07;1.97;;;1.70;;
11211;SDS011;5663;50.864;12.096;2023-04-01T17:30:47;2.37;;;1.67;;
11211;SDS011;5663;50.864;12.096;2023-04-01T17:33:34;2.50;;;1.70;;
11211;SDS011;5663;50.864;12.096;2023-04-01T17:36:18;2.60;;;1.70;;
11211;SDS011;5663;50.864;12.096;2023-04-01T17:39:07;2.00;;;1.80;;
11211;SDS011;5663;50.864;12.096;2023-04-01T17:41:52;3.30;;;2.00;;
11211;SDS011;5663;50.864;12.096;2023-04-01T17:44:28;3.03;;;1.60;;